createdAt,value
2022-10-30T00:00:48.747Z,99.90
2022-10-30T00:03:16.430Z,99.90
2022-10-30T00:05:49.154Z,99.90
2022-10-30T00:08:18.354Z,99.90
2022-10-30T00:10:45.505Z,99.90
2022-10-30T00:13:12.973Z,99.90
2022-10-30T00:15:40.153Z,99.90
2022-10-30T00:18:06.942Z,99.90
2022-10-30T00:20:36.479Z,99.90
2022-10-30T00:23:03.352Z,99.90
2022-10-30T00:25:30.221Z,99.90
2022-10-30T00:27:57.093Z,99.90
2022-10-30T00:30:23.941Z,99.90
2022-10-30T00:32:50.751Z,99.90
2022-10-30T00:35:17.638Z,99.90
2022-10-30T00:37:44.460Z,99.90
2022-10-30T00:40:16.337Z,99.90
2022-10-30T00:42:43.929Z,99.90
2022-10-30T00:45:16.936Z,99.90
2022-10-30T00:47:47.874Z,99.90
2022-10-30T00:50:40.239Z,99.90
2022-10-30T00:53:15.294Z,99.90
2022-10-30T00:55:50.941Z,99.90
2022-10-30T00:58:23.001Z,99.90
2022-10-30T01:00:53.495Z,99.90
2022-10-30T01:03:23.185Z,99.90
2022-10-30T01:05:54.891Z,99.90
2022-10-30T01:08:21.896Z,99.90
2022-10-30T01:10:49.583Z,99.90
2022-10-30T01:13:18.248Z,99.90
2022-10-30T01:15:58.216Z,99.90
2022-10-30T01:19:04.967Z,99.90
2022-10-30T01:21:47.113Z,99.90
2022-10-30T01:24:53.979Z,99.90
2022-10-30T01:27:58.746Z,99.90
2022-10-30T01:30:25.516Z,99.90
2022-10-30T01:33:21.376Z,99.90
2022-10-30T01:35:59.293Z,99.90
2022-10-30T01:38:49.371Z,99.90
2022-10-30T01:41:16.752Z,99.90
2022-10-30T01:43:47.086Z,99.90
2022-10-30T01:46:56.215Z,99.90
2022-10-30T01:49:44.675Z,99.90
2022-10-30T01:52:30.267Z,99.90
2022-10-30T01:55:23.939Z,99.90
2022-10-30T01:58:08.798Z,99.90
2022-10-30T02:00:37.699Z,99.90
2022-10-30T02:03:05.387Z,99.90
2022-10-30T02:05:38.992Z,99.90
2022-10-30T02:08:06.298Z,99.90
2022-10-30T02:10:36.731Z,99.90
2022-10-30T02:13:04.131Z,99.90
2022-10-30T02:15:32.053Z,99.90
2022-10-30T02:17:59.443Z,99.90
2022-10-30T02:20:27.497Z,99.90
2022-10-30T02:22:58.082Z,99.90
2022-10-30T02:25:26.481Z,99.90
2022-10-30T02:27:53.386Z,99.90
2022-10-30T02:30:20.289Z,99.90
2022-10-30T02:32:47.441Z,99.90
2022-10-30T02:35:14.488Z,99.90
2022-10-30T02:37:41.315Z,99.90
2022-10-30T02:40:08.864Z,99.90
2022-10-30T02:42:36.140Z,99.90
2022-10-30T02:45:03.272Z,99.90
2022-10-30T02:47:30.204Z,99.90
2022-10-30T02:49:57.060Z,99.90
2022-10-30T02:52:23.909Z,99.90
2022-10-30T02:54:50.745Z,99.90
2022-10-30T02:57:17.571Z,99.90
2022-10-30T02:59:44.431Z,99.90
2022-10-30T03:02:11.293Z,99.90
2022-10-30T03:04:38.229Z,99.90
2022-10-30T03:07:05.043Z,99.90
2022-10-30T03:09:31.805Z,99.90
2022-10-30T03:11:58.599Z,99.90
2022-10-30T03:14:25.618Z,99.90
2022-10-30T03:16:52.852Z,99.90
2022-10-30T03:19:20.782Z,99.90
2022-10-30T03:21:47.763Z,99.90
2022-10-30T03:24:14.868Z,99.90
2022-10-30T03:26:41.730Z,99.90
2022-10-30T03:29:08.495Z,99.90
2022-10-30T03:31:36.027Z,99.90
2022-10-30T03:34:02.796Z,99.90
2022-10-30T03:36:29.647Z,99.90
2022-10-30T03:38:56.785Z,99.90
2022-10-30T03:41:23.583Z,99.90
2022-10-30T03:43:51.199Z,99.90
2022-10-30T03:46:17.985Z,99.90
2022-10-30T03:48:48.491Z,99.90
2022-10-30T03:51:15.465Z,99.90
2022-10-30T03:53:42.255Z,99.90
2022-10-30T03:56:10.582Z,99.90
2022-10-30T03:58:37.387Z,99.90
2022-10-30T04:01:06.423Z,99.90
2022-10-30T04:03:33.674Z,99.90
2022-10-30T04:06:00.579Z,99.90
2022-10-30T04:08:27.457Z,99.90
2022-10-30T04:10:54.349Z,99.90
2022-10-30T04:13:21.232Z,99.90
2022-10-30T04:15:57.228Z,99.90
2022-10-30T04:18:25.368Z,99.90
2022-10-30T04:20:52.294Z,99.90
2022-10-30T04:23:21.437Z,99.90
2022-10-30T04:25:48.711Z,99.90
2022-10-30T04:28:15.864Z,99.90
2022-10-30T04:30:42.775Z,99.90
2022-10-30T04:33:12.668Z,99.90
2022-10-30T04:35:40.953Z,99.90
2022-10-30T04:38:10.480Z,99.90
2022-10-30T04:40:39.709Z,99.90
2022-10-30T04:43:07.344Z,99.90
2022-10-30T04:45:34.883Z,99.90
2022-10-30T04:48:07.763Z,99.90
2022-10-30T04:50:35.652Z,99.90
2022-10-30T04:53:22.780Z,99.90
2022-10-30T04:55:54.837Z,99.90
2022-10-30T04:58:21.643Z,99.90
2022-10-30T05:00:48.473Z,99.90
2022-10-30T05:03:23.716Z,99.90
2022-10-30T05:06:02.652Z,99.90
2022-10-30T05:08:30.170Z,99.90
2022-10-30T05:10:57.453Z,99.90
2022-10-30T05:13:24.703Z,99.90
2022-10-30T05:15:53.678Z,99.90
2022-10-30T05:18:20.434Z,99.90
2022-10-30T05:20:47.743Z,99.90
2022-10-30T05:23:14.522Z,99.90
2022-10-30T05:25:41.419Z,99.90
2022-10-30T05:28:08.318Z,99.90
2022-10-30T05:30:35.508Z,99.90
2022-10-30T05:33:04.803Z,99.90
2022-10-30T05:35:32.934Z,99.90
2022-10-30T05:38:01.212Z,99.90
2022-10-30T05:40:28.242Z,99.90
2022-10-30T05:42:55.375Z,99.90
2022-10-30T05:45:22.378Z,99.90
2022-10-30T05:48:04.127Z,99.90
2022-10-30T05:50:32.166Z,99.90
2022-10-30T05:52:59.986Z,99.90
2022-10-30T05:55:27.531Z,99.90
2022-10-30T05:57:59.272Z,99.90
2022-10-30T06:00:27.728Z,99.90
2022-10-30T06:03:01.013Z,99.90
2022-10-30T06:05:30.670Z,99.90
2022-10-30T06:07:57.833Z,99.90
2022-10-30T06:10:25.289Z,99.90
2022-10-30T06:13:00.879Z,99.90
2022-10-30T06:15:29.375Z,99.90
2022-10-30T06:17:57.003Z,99.90
2022-10-30T06:20:26.433Z,99.90
2022-10-30T06:23:01.957Z,99.90
2022-10-30T06:25:30.315Z,99.90
2022-10-30T06:27:57.878Z,99.90
2022-10-30T06:30:25.799Z,99.90
2022-10-30T06:33:04.007Z,99.90
2022-10-30T06:35:31.000Z,99.90
2022-10-30T06:38:00.371Z,99.90
2022-10-30T06:40:29.917Z,99.90
2022-10-30T06:42:57.667Z,99.90
2022-10-30T06:45:25.185Z,99.90
2022-10-30T06:47:52.262Z,99.90
2022-10-30T06:50:21.973Z,99.90
2022-10-30T06:52:49.442Z,99.90
2022-10-30T06:55:16.599Z,99.90
2022-10-30T06:57:43.409Z,99.90
2022-10-30T07:00:10.850Z,99.90
2022-10-30T07:02:37.673Z,99.90
2022-10-30T07:05:05.043Z,99.90
2022-10-30T07:07:31.956Z,99.90
2022-10-30T07:09:58.796Z,99.90
2022-10-30T07:12:25.622Z,99.90
2022-10-30T07:14:52.406Z,99.90
2022-10-30T07:17:19.250Z,99.90
2022-10-30T07:19:46.111Z,99.90
2022-10-30T07:22:12.939Z,99.90
2022-10-30T07:24:39.739Z,99.90
2022-10-30T07:27:06.516Z,99.90
2022-10-30T07:29:33.359Z,99.90
2022-10-30T07:32:03.797Z,99.90
2022-10-30T07:34:31.195Z,99.90
2022-10-30T07:36:58.176Z,99.90
2022-10-30T07:39:25.036Z,99.90
2022-10-30T07:41:51.819Z,99.90
2022-10-30T07:44:18.659Z,99.90
2022-10-30T07:46:45.432Z,99.90
2022-10-30T07:49:12.279Z,99.90
2022-10-30T07:51:39.098Z,99.90
2022-10-30T07:54:05.911Z,99.90
2022-10-30T07:56:32.689Z,99.90
2022-10-30T07:58:59.482Z,99.90
2022-10-30T08:01:26.441Z,99.90
2022-10-30T08:03:53.301Z,99.90
2022-10-30T08:06:23.037Z,99.90
2022-10-30T08:08:53.292Z,99.90
2022-10-30T08:11:20.176Z,99.90
2022-10-30T08:13:47.078Z,99.90
2022-10-30T08:16:14.640Z,99.90
2022-10-30T08:18:42.588Z,99.90
2022-10-30T08:21:09.994Z,99.90
2022-10-30T08:23:37.117Z,99.90
2022-10-30T08:26:04.392Z,99.90
2022-10-30T08:28:32.993Z,99.90
2022-10-30T08:31:00.878Z,99.90
2022-10-30T08:33:28.433Z,99.90
2022-10-30T08:35:57.344Z,99.90
2022-10-30T08:38:24.652Z,99.90
2022-10-30T08:40:52.405Z,99.90
2022-10-30T08:43:19.249Z,99.90
2022-10-30T08:45:46.261Z,99.90
2022-10-30T08:48:15.168Z,99.90
2022-10-30T08:50:42.434Z,99.90
2022-10-30T08:53:12.292Z,99.90
2022-10-30T08:55:39.194Z,99.90
2022-10-30T08:58:05.998Z,99.90
2022-10-30T09:00:32.839Z,99.90
2022-10-30T09:02:59.934Z,99.90
2022-10-30T09:05:27.204Z,99.90
2022-10-30T09:07:59.176Z,99.90
2022-10-30T09:10:27.361Z,99.90
2022-10-30T09:12:58.622Z,99.90
2022-10-30T09:15:26.567Z,99.90
2022-10-30T09:18:02.456Z,99.90
2022-10-30T09:20:30.566Z,99.90
2022-10-30T09:22:57.947Z,99.90
2022-10-30T09:25:25.188Z,99.90
2022-10-30T09:27:51.949Z,99.90
2022-10-30T09:30:18.827Z,99.90
2022-10-30T09:32:46.692Z,99.90
2022-10-30T09:35:15.856Z,99.90
2022-10-30T09:37:42.598Z,99.90
2022-10-30T09:40:19.835Z,99.90
2022-10-30T09:42:48.494Z,99.90
2022-10-30T09:45:40.936Z,99.90
2022-10-30T09:48:13.512Z,99.90
2022-10-30T09:51:06.589Z,99.90
2022-10-30T09:53:58.201Z,99.90
2022-10-30T09:56:45.314Z,99.90
2022-10-30T09:59:17.884Z,99.90
2022-10-30T10:02:17.386Z,99.90
2022-10-30T10:04:50.341Z,99.90
2022-10-30T10:07:29.167Z,99.90
2022-10-30T10:10:01.953Z,99.90
2022-10-30T10:12:57.232Z,99.90
2022-10-30T10:15:51.744Z,99.90
2022-10-30T10:18:25.550Z,99.90
2022-10-30T10:20:57.627Z,99.90
2022-10-30T10:23:39.389Z,99.90
2022-10-30T10:26:19.936Z,99.90
2022-10-30T10:29:08.918Z,99.90
2022-10-30T10:31:44.841Z,99.90
2022-10-30T10:34:33.105Z,99.90
2022-10-30T10:37:11.874Z,99.90
2022-10-30T10:39:55.576Z,99.90
2022-10-30T10:42:50.653Z,99.90
2022-10-30T10:45:44.020Z,99.90
2022-10-30T10:48:28.858Z,99.90
2022-10-30T10:51:16.950Z,99.90
2022-10-30T10:53:58.445Z,99.90
2022-10-30T10:56:35.011Z,99.90
2022-10-30T10:59:08.973Z,99.90
2022-10-30T11:01:41.006Z,99.90
2022-10-30T11:04:24.203Z,99.90
2022-10-30T11:06:54.188Z,99.90
2022-10-30T11:09:23.702Z,99.90
2022-10-30T11:11:52.450Z,99.90
2022-10-30T11:14:20.551Z,99.90
2022-10-30T11:17:25.751Z,99.90
2022-10-30T11:20:11.803Z,99.90
2022-10-30T11:22:43.057Z,99.90
2022-10-30T11:25:27.001Z,99.90
2022-10-30T11:28:00.644Z,99.90
2022-10-30T11:30:28.703Z,99.80
2022-10-30T11:32:58.638Z,99.80
2022-10-30T11:35:26.735Z,99.90
2022-10-30T11:38:22.579Z,99.80
2022-10-30T11:40:52.116Z,99.80
2022-10-30T11:43:23.979Z,99.50
2022-10-30T11:45:51.478Z,99.60
2022-10-30T11:48:23.996Z,99.70
2022-10-30T11:50:52.370Z,99.80
2022-10-30T11:53:31.136Z,99.90
2022-10-30T11:55:59.173Z,99.70
2022-10-30T11:58:35.963Z,99.80
2022-10-30T12:01:02.700Z,99.30
2022-10-30T12:03:40.680Z,98.80
2022-10-30T12:06:29.703Z,98.60
2022-10-30T12:09:09.115Z,98.30
2022-10-30T12:11:37.430Z,97.70
2022-10-30T12:14:05.203Z,97.50
2022-10-30T12:16:33.474Z,97.60
2022-10-30T12:19:06.827Z,97.90
2022-10-30T12:21:44.500Z,97.70
2022-10-30T12:24:34.035Z,96.80
2022-10-30T12:27:13.393Z,96.80
2022-10-30T12:30:11.974Z,96.80
2022-10-30T12:32:47.455Z,96.70
2022-10-30T12:35:34.494Z,96.80
2022-10-30T12:38:03.151Z,97.00
2022-10-30T12:40:39.197Z,97.20
2022-10-30T12:43:22.133Z,97.30
2022-10-30T12:45:53.199Z,97.10
2022-10-30T12:48:33.930Z,97.10
2022-10-30T12:51:18.517Z,97.20
2022-10-30T12:54:02.668Z,97.10
2022-10-30T12:56:51.450Z,97.10
2022-10-30T12:59:30.700Z,97.20
2022-10-30T13:02:01.727Z,97.20
2022-10-30T13:04:35.990Z,97.40
2022-10-30T13:07:16.789Z,97.50
2022-10-30T13:10:09.404Z,97.40
2022-10-30T13:12:39.703Z,97.70
2022-10-30T13:15:17.177Z,97.60
2022-10-30T13:17:43.975Z,97.40
2022-10-30T13:20:15.747Z,97.50
2022-10-30T13:22:51.282Z,97.60
2022-10-30T13:25:26.426Z,97.30
2022-10-30T13:28:13.486Z,97.50
2022-10-30T13:30:44.493Z,97.40
2022-10-30T13:33:22.907Z,97.30
2022-10-30T13:36:03.979Z,97.30
2022-10-30T13:38:36.519Z,97.30
2022-10-30T13:41:03.275Z,97.50
2022-10-30T13:43:49.108Z,97.60
2022-10-30T13:46:46.512Z,97.60
2022-10-30T13:49:22.415Z,97.60
2022-10-30T13:52:04.572Z,97.50
2022-10-30T13:54:44.064Z,97.60
2022-10-30T13:57:37.598Z,97.60
2022-10-30T14:00:19.854Z,97.60
2022-10-30T14:03:23.654Z,97.70
2022-10-30T14:06:21.524Z,97.80
2022-10-30T14:09:06.375Z,97.70
2022-10-30T14:11:33.195Z,98.00
2022-10-30T14:14:30.204Z,98.00
2022-10-30T14:17:16.539Z,98.00
2022-10-30T14:20:10.152Z,98.10
2022-10-30T14:22:41.094Z,98.20
2022-10-30T14:25:14.240Z,98.20
2022-10-30T14:27:41.211Z,98.20
2022-10-30T14:30:19.295Z,98.40
2022-10-30T14:32:53.090Z,98.40
2022-10-30T14:35:39.923Z,98.50
2022-10-30T14:38:09.726Z,98.50
2022-10-30T14:40:48.597Z,98.70
2022-10-30T14:43:57.113Z,98.70
2022-10-30T14:46:44.759Z,98.80
2022-10-30T14:49:35.526Z,99.00
2022-10-30T14:52:23.938Z,99.10
2022-10-30T14:55:18.648Z,99.20
2022-10-30T14:58:03.437Z,99.20
2022-10-30T15:00:35.956Z,99.30
2022-10-30T15:03:30.595Z,99.30
2022-10-30T15:06:23.275Z,99.40
2022-10-30T15:09:16.890Z,99.40
2022-10-30T15:11:52.720Z,99.50
2022-10-30T15:14:39.852Z,99.60
2022-10-30T15:17:23.731Z,99.70
2022-10-30T15:19:50.752Z,99.90
2022-10-30T15:22:21.415Z,99.90
2022-10-30T15:24:51.719Z,99.90
2022-10-30T15:27:21.846Z,99.90
2022-10-30T15:30:01.288Z,99.90
2022-10-30T15:32:28.270Z,99.90
2022-10-30T15:35:00.762Z,99.90
2022-10-30T15:37:28.327Z,99.90
2022-10-30T15:40:15.170Z,99.90
2022-10-30T15:42:42.565Z,99.90
2022-10-30T15:45:18.207Z,99.90
2022-10-30T15:47:52.421Z,99.90
2022-10-30T15:50:21.812Z,99.90
2022-10-30T15:52:49.353Z,99.90
2022-10-30T15:55:20.634Z,99.90
2022-10-30T15:58:06.887Z,99.90
2022-10-30T16:00:36.907Z,99.90
2022-10-30T16:03:05.244Z,99.90
2022-10-30T16:05:33.381Z,99.90
2022-10-30T16:08:02.459Z,99.90
2022-10-30T16:10:36.187Z,99.90
2022-10-30T16:13:04.199Z,99.90
2022-10-30T16:15:34.858Z,99.90
2022-10-30T16:18:22.139Z,99.90
2022-10-30T16:20:54.778Z,99.90
2022-10-30T16:23:22.214Z,99.90
2022-10-30T16:25:55.511Z,99.90
2022-10-30T16:28:30.048Z,99.90
2022-10-30T16:31:05.641Z,99.90
2022-10-30T16:33:35.001Z,99.90
2022-10-30T16:36:04.893Z,99.90
2022-10-30T16:38:37.425Z,99.90
2022-10-30T16:41:06.408Z,99.90
2022-10-30T16:43:35.322Z,99.90
2022-10-30T16:46:27.235Z,99.90
2022-10-30T16:49:07.368Z,99.90
2022-10-30T16:51:34.537Z,99.90
2022-10-30T16:54:01.341Z,99.90
2022-10-30T16:56:31.421Z,99.90
2022-10-30T16:59:07.587Z,99.90
2022-10-30T17:01:35.891Z,99.90
2022-10-30T17:04:03.750Z,99.90
2022-10-30T17:06:40.799Z,99.90
2022-10-30T17:09:20.725Z,99.90
2022-10-30T17:12:21.102Z,99.90
2022-10-30T17:15:08.077Z,99.90
2022-10-30T17:17:38.116Z,99.90
2022-10-30T17:20:21.006Z,99.90
2022-10-30T17:23:04.173Z,99.90
2022-10-30T17:25:36.126Z,99.90
2022-10-30T17:28:03.577Z,99.90
2022-10-30T17:30:35.297Z,99.90
2022-10-30T17:33:25.440Z,99.90
2022-10-30T17:35:55.605Z,99.90
2022-10-30T17:38:22.590Z,99.90
2022-10-30T17:40:50.313Z,99.90
2022-10-30T17:43:17.171Z,99.90
2022-10-30T17:45:44.455Z,99.90
2022-10-30T17:48:16.794Z,99.90
2022-10-30T17:50:44.174Z,99.90
2022-10-30T17:53:21.659Z,99.90
2022-10-30T17:56:10.367Z,99.90
2022-10-30T17:58:37.239Z,99.90
2022-10-30T18:01:04.151Z,99.90
2022-10-30T18:03:31.109Z,99.90
2022-10-30T18:06:01.378Z,99.90
2022-10-30T18:08:29.784Z,99.90
2022-10-30T18:10:56.775Z,99.90
2022-10-30T18:13:23.600Z,99.90
2022-10-30T18:15:57.818Z,99.90
2022-10-30T18:18:24.704Z,99.90
2022-10-30T18:20:51.632Z,99.90
2022-10-30T18:23:50.863Z,99.90
2022-10-30T18:26:16.951Z,99.90
2022-10-30T18:28:44.263Z,99.90
2022-10-30T18:31:13.131Z,99.90
2022-10-30T18:33:41.127Z,99.90
2022-10-30T18:36:15.183Z,99.90
2022-10-30T18:38:42.283Z,99.90
2022-10-30T18:41:20.292Z,99.90
2022-10-30T18:43:47.664Z,99.90
2022-10-30T18:46:15.009Z,99.90
2022-10-30T18:48:41.936Z,99.90
2022-10-30T18:51:18.453Z,99.90
2022-10-30T18:53:51.800Z,99.90
2022-10-30T18:56:27.251Z,99.90
2022-10-30T18:58:58.742Z,99.90
2022-10-30T19:01:32.041Z,99.90
2022-10-30T19:04:03.782Z,99.90
2022-10-30T19:06:32.879Z,99.90
2022-10-30T19:08:59.730Z,99.90
2022-10-30T19:11:28.239Z,99.90
2022-10-30T19:13:57.165Z,99.90
2022-10-30T19:16:25.431Z,99.90
2022-10-30T19:18:52.414Z,99.90
2022-10-30T19:21:22.216Z,99.90
2022-10-30T19:23:49.604Z,99.90
2022-10-30T19:26:17.583Z,99.90
2022-10-30T19:28:45.854Z,99.90
2022-10-30T19:31:18.447Z,99.90
2022-10-30T19:33:46.140Z,99.90
2022-10-30T19:36:34.189Z,99.90
2022-10-30T19:39:08.326Z,99.90
2022-10-30T19:44:03.373Z,99.90
2022-10-30T19:46:30.238Z,99.90
2022-10-30T19:48:58.617Z,99.90
2022-10-30T19:51:27.175Z,99.90
2022-10-30T19:53:54.238Z,99.90
2022-10-30T19:56:21.556Z,99.90
2022-10-30T19:58:48.983Z,99.90
2022-10-30T20:01:16.239Z,99.90
2022-10-30T20:03:43.477Z,99.90
2022-10-30T20:06:14.222Z,99.90
2022-10-30T20:08:41.308Z,99.90
2022-10-30T20:11:08.649Z,99.90
2022-10-30T20:13:37.027Z,99.90
2022-10-30T20:16:05.128Z,99.90
2022-10-30T20:18:35.393Z,99.90
2022-10-30T20:21:11.686Z,99.90
2022-10-30T20:23:39.458Z,99.90
2022-10-30T20:26:13.907Z,99.90
2022-10-30T20:28:42.831Z,99.90
2022-10-30T20:31:12.381Z,99.90
2022-10-30T20:33:39.728Z,99.90
2022-10-30T20:36:13.676Z,99.90
2022-10-30T20:38:40.625Z,99.90
2022-10-30T20:41:20.449Z,99.90
2022-10-30T20:43:47.279Z,99.90
2022-10-30T20:46:14.080Z,99.90
2022-10-30T20:48:40.843Z,99.90
2022-10-30T20:51:07.811Z,99.90
2022-10-30T20:53:34.692Z,99.90
2022-10-30T20:56:01.484Z,99.90
2022-10-30T20:58:28.693Z,99.90
2022-10-30T21:00:58.289Z,99.90
2022-10-30T21:03:26.566Z,99.90
2022-10-30T21:05:59.023Z,99.90
2022-10-30T21:08:27.212Z,99.90
2022-10-30T21:10:58.088Z,99.90
2022-10-30T21:13:24.891Z,99.90
2022-10-30T21:15:51.702Z,99.90
2022-10-30T21:18:18.557Z,99.90
2022-10-30T21:20:45.350Z,99.90
2022-10-30T21:23:13.084Z,99.90
2022-10-30T21:25:39.865Z,99.90
2022-10-30T21:28:06.717Z,99.90
2022-10-30T21:30:33.640Z,99.90
2022-10-30T21:33:00.784Z,99.90
2022-10-30T21:35:28.135Z,99.90
2022-10-30T21:37:54.942Z,99.90
2022-10-30T21:40:21.914Z,99.90
2022-10-30T21:42:48.937Z,99.90
2022-10-30T21:45:15.969Z,99.90
2022-10-30T21:47:42.831Z,99.90
2022-10-30T21:50:12.246Z,99.90
2022-10-30T21:52:40.298Z,99.90
2022-10-30T21:55:07.750Z,99.90
2022-10-30T21:57:34.711Z,99.90
2022-10-30T22:00:05.964Z,99.90
2022-10-30T22:02:34.544Z,99.90
2022-10-30T22:05:01.422Z,99.90
2022-10-30T22:07:28.530Z,99.90
2022-10-30T22:09:55.439Z,99.90
2022-10-30T22:12:22.274Z,99.90
2022-10-30T22:14:49.100Z,99.90
2022-10-30T22:17:15.938Z,99.90
2022-10-30T22:19:42.698Z,99.90
2022-10-30T22:22:11.109Z,99.90
2022-10-30T22:24:38.191Z,99.90
2022-10-30T22:27:05.105Z,99.90
2022-10-30T22:29:32.070Z,99.90
2022-10-30T22:31:58.875Z,99.90
2022-10-30T22:34:25.910Z,99.90
2022-10-30T22:36:52.705Z,99.90
2022-10-30T22:39:20.037Z,99.90
2022-10-30T22:41:46.908Z,99.90
2022-10-30T22:44:17.423Z,99.90
2022-10-30T22:46:44.634Z,99.90
2022-10-30T22:49:12.289Z,99.90
2022-10-30T22:51:54.410Z,99.90
2022-10-30T22:54:21.194Z,99.90
2022-10-30T22:56:47.951Z,99.90
2022-10-30T22:59:15.064Z,99.90
2022-10-30T23:01:42.614Z,99.90
2022-10-30T23:04:11.208Z,99.90
2022-10-30T23:06:38.499Z,99.90
2022-10-30T23:09:08.809Z,99.90
2022-10-30T23:11:35.706Z,99.90
2022-10-30T23:14:02.753Z,99.90
2022-10-30T23:16:29.868Z,99.90
2022-10-30T23:18:58.949Z,99.90
2022-10-30T23:21:28.498Z,99.90
2022-10-30T23:23:56.065Z,99.90
2022-10-30T23:26:29.232Z,99.90
2022-10-30T23:28:57.318Z,99.90
2022-10-30T23:31:32.377Z,99.90
2022-10-30T23:34:01.076Z,99.90
2022-10-30T23:36:27.921Z,99.90
2022-10-30T23:38:59.729Z,99.90
2022-10-30T23:41:28.814Z,99.90
2022-10-30T23:44:00.226Z,99.90
2022-10-30T23:46:27.374Z,99.90
2022-10-30T23:48:54.914Z,99.90
2022-10-30T23:51:22.180Z,99.90
2022-10-30T23:53:49.897Z,99.90
2022-10-30T23:56:16.934Z,99.90
2022-10-30T23:58:48.129Z,99.90
